Navi Sky — V4IO3 — position and weather

sailwx.info

Track history (hours):
 
Tides and Currents Weather Stations Pressure Air Temp Water Temp Dewpoint Dewpoint Depression Visibility Wind Speed Wind Dir Waves Ship Positions

Navi Sky

Last reported at 2018-Jan-11 15:13 UTC. Time now 2018-Feb-18 06:55 UTC.
Position N 37°06' W 000°41'.
Warning: this ship's position is 37 days out of date.

Length 101 m; draft 4.9 m.

Type: Cargo ship. MMSI: 341270000.

Date/timePositionNaut miles runAvg speedWind from/ knotsBaromVisibWave heightAir tempDewpointWater temp
2018-Jan-11 15:13N 37°06' W 000°41'196 9.5
2018-Jan-10 18:31N 36°05' W 004°32'011.5
2018-Jan-10 18:30N 36°05' W 004°33'611.7
2018-Jan-10 18:00N 36°04' W 004°40'611.4
2018-Jan-10 17:30N 36°03' W 004°47'611.4
2018-Jan-10 17:00N 36°02' W 004°54'510.2
2018-Jan-10 16:30N 36°01' W 004°60'611.7
2018-Jan-10 16:00N 36°00' W 005°07'612.0
2018-Jan-10 15:30N 35°59' W 005°14'713.7
2018-Jan-10 15:01N 35°58' W 005°23'714.3
2018-Jan-10 14:30N 35°56' W 005°31'612.0
2018-Jan-10 14:00N 35°54' W 005°38'612.7
2018-Jan-10 13:30N 35°53' W 005°46'249 8.6
2018-Jan-09 08:33N 38°17' W 010°01'1 9.4
2018-Jan-09 08:29N 38°18' W 010°01'5 9.5
2018-Jan-09 08:00N 38°23' W 010°02'5 9.9
2018-Jan-09 07:30N 38°27' W 010°03'711.0
2018-Jan-09 06:52N 38°34' W 010°05'410.8
2018-Jan-09 06:29N 38°38' W 010°05'510.8
2018-Jan-09 06:00N 38°44' W 010°06'510.7
2018-Jan-09 05:30N 38°49' W 010°06'510.7
2018-Jan-09 05:00N 38°54' W 010°06'510.7
2018-Jan-09 04:30N 38°60' W 010°06'510.9
2018-Jan-09 04:00N 39°05' W 010°07'511.0
2018-Jan-09 03:30N 39°11' W 010°07'611.3
2018-Jan-09 03:00N 39°16' W 010°07'  
2018-Jan-06 13:27N 49°48' W 003°26'612.3
2018-Jan-06 13:00N 49°51' W 003°19'611.8
2018-Jan-06 12:30N 49°54' W 003°11'611.1
2018-Jan-06 12:00N 49°57' W 003°03'510.3
2018-Jan-06 11:30N 49°59' W 002°56'5 9.6
2018-Jan-06 11:00N 50°01' W 002°49'5 9.3
2018-Jan-06 10:30N 50°02' W 002°43'5 9.0
2018-Jan-06 10:00N 50°03' W 002°36'6 9.0
2018-Jan-06 09:23N 50°05' W 002°27'8411.7
2018-Jan-06 02:14N 50°28' W 000°21'210.3
2018-Jan-06 02:00N 50°29' W 000°18'5 9.6
2018-Jan-06 01:30N 50°30' W 000°10'4 8.9
2018-Jan-06 01:00N 50°31' W 000°03'4 9.0
2018-Jan-06 00:30N 50°32' E 000°03'4 8.8
2018-Jan-06 00:00N 50°33' E 000°10'5 8.9
2018-Jan-05 23:30N 50°34' E 000°17'5 9.2
2018-Jan-05 23:00N 50°36' E 000°24'5 9.6
2018-Jan-05 22:30N 50°37' E 000°31'510.1
2018-Jan-05 22:00N 50°40' E 000°38'510.9
2018-Jan-05 21:30N 50°42' E 000°45'611.8
2018-Jan-05 21:00N 50°46' E 000°53'612.4
2018-Jan-05 20:30N 50°49' E 001°01'612.0
2018-Jan-05 20:00N 50°53' E 001°08'712.2
2018-Jan-05 19:27N 50°58' E 001°16'511.6
2018-Jan-05 19:00N 51°01' E 001°22'510.8
2018-Jan-05 18:30N 51°05' E 001°28'5 9.8
2018-Jan-05 18:00N 51°08' E 001°34'4 8.6
2018-Jan-05 17:30N 51°11' E 001°39'4 8.3
2018-Jan-05 17:00N 51°14' E 001°45'4 8.1
2018-Jan-05 16:30N 51°17' E 001°48'4 7.8
2018-Jan-05 16:00N 51°20' E 001°51'4 7.6
2018-Jan-05 15:30N 51°24' E 001°54'4 7.8
2018-Jan-05 15:00N 51°27' E 001°58'4 8.4
2018-Jan-05 14:30N 51°30' E 002°02'4 9.0
2018-Jan-05 14:00N 51°33' E 002°07'4 8.6
2018-Jan-05 13:30N 51°36' E 002°12'5 9.2
2018-Jan-05 12:56N 51°40' E 002°17'103 6.8
2018-Jan-04 21:46N 53°01' E 004°03'2 2.2
2018-Jan-04 21:03N 53°02' E 004°05'0 2.4
2018-Jan-04 21:00N 53°02' E 004°06'242 7.3
2018-Jan-03 11:39N 56°34' E 007°26'1 6.9
2018-Jan-03 11:30N 56°35' E 007°27'4 7.1
2018-Jan-03 11:00N 56°38' E 007°31'4 7.4
2018-Jan-03 10:30N 56°41' E 007°34'4 7.2
2018-Jan-03 09:59N 56°45' E 007°38'4 7.0
2018-Jan-03 09:29N 56°47' E 007°41'111 7.6
2018-Jan-02 18:56N 57°49' E 010°32'3 7.8
2018-Jan-02 18:30N 57°49' E 010°38'4 7.5
2018-Jan-02 17:54N 57°49' E 010°46'4 8.9
2018-Jan-02 17:30N 57°46' E 010°51'510.2
2018-Jan-02 17:00N 57°43' E 010°58'510.3
2018-Jan-02 16:30N 57°39' E 011°05'5 9.8
2018-Jan-02 16:00N 57°36' E 011°12'510.0
2018-Jan-02 15:30N 57°33' E 011°19'510.0
2018-Jan-02 15:00N 57°29' E 011°26'510.6
2018-Jan-02 14:30N 57°24' E 011°29'510.7
2018-Jan-02 14:00N 57°19' E 011°33'510.4
2018-Jan-02 13:30N 57°14' E 011°36'510.7
2018-Jan-02 13:00N 57°09' E 011°39'510.5
2018-Jan-02 12:30N 57°05' E 011°44'610.7
2018-Jan-02 11:56N 56°59' E 011°47'610.9
2018-Jan-02 11:25N 56°53' E 011°50'42 9.7
2018-Jan-02 07:04N 56°14' E 012°17'1 9.2
2018-Jan-02 06:59N 56°13' E 012°18'5 9.5
2018-Jan-02 06:30N 56°11' E 012°25'5 9.9
2018-Jan-02 06:00N 56°08' E 012°32'510.2
2018-Jan-02 05:30N 56°04' E 012°38'1010.2
2018-Jan-02 04:30N 55°54' E 012°45'5 9.9
2018-Jan-02 04:00N 55°49' E 012°43'510.4
2018-Jan-02 03:30N 55°44' E 012°41'5 9.9
2018-Jan-02 03:00N 55°39' E 012°42'5 9.7
2018-Jan-02 02:30N 55°35' E 012°42'510.1
2018-Jan-02 02:00N 55°30' E 012°43'510.5
2018-Jan-02 01:30N 55°24' E 012°42'510.6
2018-Jan-02 01:00N 55°19' E 012°41'5 9.3
2018-Jan-02 00:30N 55°17' E 012°48'5 9.5
2018-Jan-02 00:00N 55°16' E 012°57'5 9.4
2018-Jan-01 23:30N 55°16' E 013°05'5 9.4
2018-Jan-01 23:00N 55°15' E 013°13'5 9.1
2018-Jan-01 22:30N 55°15' E 013°21'4 8.7
2018-Jan-01 22:00N 55°15' E 013°29'10 8.6
2018-Jan-01 20:50N 55°14' E 013°46'14 8.8
2018-Jan-01 19:17N 55°13' E 014°10'2 8.5
2018-Jan-01 19:00N 55°13' E 014°14'4 7.4
2018-Jan-01 18:24N 55°16' E 014°20'3 7.4
2018-Jan-01 18:00N 55°19' E 014°23'4 7.0
2018-Jan-01 17:30N 55°22' E 014°27'  
Track history (hours):
 
Tides and Currents Weather Stations Pressure Air Temp Water Temp Dewpoint Dewpoint Depression Visibility Wind Speed Wind Dir Waves Ship Positions

Navi Sky

Last reported at 2018-Jan-11 15:13 UTC. Time now 2018-Feb-18 06:55 UTC.
Position N 37°06' W 000°41'.
Warning: this ship's position is 37 days out of date.

Length 101 m; draft 4.9 m.

Type: Cargo ship. MMSI: 341270000.

Date/timePositionNaut miles runAvg speedWind from/ knotsBaromVisibWave heightAir tempDewpointWater temp
2018-Jan-11 15:13N 37°06' W 000°41'196 9.5
2018-Jan-10 18:31N 36°05' W 004°32'011.5
2018-Jan-10 18:30N 36°05' W 004°33'611.7
2018-Jan-10 18:00N 36°04' W 004°40'611.4
2018-Jan-10 17:30N 36°03' W 004°47'611.4
2018-Jan-10 17:00N 36°02' W 004°54'510.2
2018-Jan-10 16:30N 36°01' W 004°60'611.7
2018-Jan-10 16:00N 36°00' W 005°07'612.0
2018-Jan-10 15:30N 35°59' W 005°14'713.7
2018-Jan-10 15:01N 35°58' W 005°23'714.3
2018-Jan-10 14:30N 35°56' W 005°31'612.0
2018-Jan-10 14:00N 35°54' W 005°38'612.7
2018-Jan-10 13:30N 35°53' W 005°46'249 8.6
2018-Jan-09 08:33N 38°17' W 010°01'1 9.4
2018-Jan-09 08:29N 38°18' W 010°01'5 9.5
2018-Jan-09 08:00N 38°23' W 010°02'5 9.9
2018-Jan-09 07:30N 38°27' W 010°03'711.0
2018-Jan-09 06:52N 38°34' W 010°05'410.8
2018-Jan-09 06:29N 38°38' W 010°05'510.8
2018-Jan-09 06:00N 38°44' W 010°06'510.7
2018-Jan-09 05:30N 38°49' W 010°06'510.7
2018-Jan-09 05:00N 38°54' W 010°06'510.7
2018-Jan-09 04:30N 38°60' W 010°06'510.9
2018-Jan-09 04:00N 39°05' W 010°07'511.0
2018-Jan-09 03:30N 39°11' W 010°07'611.3
2018-Jan-09 03:00N 39°16' W 010°07'  
2018-Jan-06 13:27N 49°48' W 003°26'612.3
2018-Jan-06 13:00N 49°51' W 003°19'611.8
2018-Jan-06 12:30N 49°54' W 003°11'611.1
2018-Jan-06 12:00N 49°57' W 003°03'510.3
2018-Jan-06 11:30N 49°59' W 002°56'5 9.6
2018-Jan-06 11:00N 50°01' W 002°49'5 9.3
2018-Jan-06 10:30N 50°02' W 002°43'5 9.0
2018-Jan-06 10:00N 50°03' W 002°36'6 9.0
2018-Jan-06 09:23N 50°05' W 002°27'8411.7
2018-Jan-06 02:14N 50°28' W 000°21'210.3
2018-Jan-06 02:00N 50°29' W 000°18'5 9.6
2018-Jan-06 01:30N 50°30' W 000°10'4 8.9
2018-Jan-06 01:00N 50°31' W 000°03'4 9.0
2018-Jan-06 00:30N 50°32' E 000°03'4 8.8
2018-Jan-06 00:00N 50°33' E 000°10'5 8.9
2018-Jan-05 23:30N 50°34' E 000°17'5 9.2
2018-Jan-05 23:00N 50°36' E 000°24'5 9.6
2018-Jan-05 22:30N 50°37' E 000°31'510.1
2018-Jan-05 22:00N 50°40' E 000°38'510.9
2018-Jan-05 21:30N 50°42' E 000°45'611.8
2018-Jan-05 21:00N 50°46' E 000°53'612.4
2018-Jan-05 20:30N 50°49' E 001°01'612.0
2018-Jan-05 20:00N 50°53' E 001°08'712.2
2018-Jan-05 19:27N 50°58' E 001°16'511.6
2018-Jan-05 19:00N 51°01' E 001°22'510.8
2018-Jan-05 18:30N 51°05' E 001°28'5 9.8
2018-Jan-05 18:00N 51°08' E 001°34'4 8.6
2018-Jan-05 17:30N 51°11' E 001°39'4 8.3
2018-Jan-05 17:00N 51°14' E 001°45'4 8.1
2018-Jan-05 16:30N 51°17' E 001°48'4 7.8
2018-Jan-05 16:00N 51°20' E 001°51'4 7.6
2018-Jan-05 15:30N 51°24' E 001°54'4 7.8
2018-Jan-05 15:00N 51°27' E 001°58'4 8.4
2018-Jan-05 14:30N 51°30' E 002°02'4 9.0
2018-Jan-05 14:00N 51°33' E 002°07'4 8.6
2018-Jan-05 13:30N 51°36' E 002°12'5 9.2
2018-Jan-05 12:56N 51°40' E 002°17'103 6.8
2018-Jan-04 21:46N 53°01' E 004°03'2 2.2
2018-Jan-04 21:03N 53°02' E 004°05'0 2.4
2018-Jan-04 21:00N 53°02' E 004°06'242 7.3
2018-Jan-03 11:39N 56°34' E 007°26'1 6.9
2018-Jan-03 11:30N 56°35' E 007°27'4 7.1
2018-Jan-03 11:00N 56°38' E 007°31'4 7.4
2018-Jan-03 10:30N 56°41' E 007°34'4 7.2
2018-Jan-03 09:59N 56°45' E 007°38'4 7.0
2018-Jan-03 09:29N 56°47' E 007°41'111 7.6
2018-Jan-02 18:56N 57°49' E 010°32'3 7.8
2018-Jan-02 18:30N 57°49' E 010°38'4 7.5
2018-Jan-02 17:54N 57°49' E 010°46'4 8.9
2018-Jan-02 17:30N 57°46' E 010°51'510.2
2018-Jan-02 17:00N 57°43' E 010°58'510.3
2018-Jan-02 16:30N 57°39' E 011°05'5 9.8
2018-Jan-02 16:00N 57°36' E 011°12'510.0
2018-Jan-02 15:30N 57°33' E 011°19'510.0
2018-Jan-02 15:00N 57°29' E 011°26'510.6
2018-Jan-02 14:30N 57°24' E 011°29'510.7
2018-Jan-02 14:00N 57°19' E 011°33'510.4
2018-Jan-02 13:30N 57°14' E 011°36'510.7
2018-Jan-02 13:00N 57°09' E 011°39'510.5
2018-Jan-02 12:30N 57°05' E 011°44'610.7
2018-Jan-02 11:56N 56°59' E 011°47'610.9
2018-Jan-02 11:25N 56°53' E 011°50'42 9.7
2018-Jan-02 07:04N 56°14' E 012°17'1 9.2
2018-Jan-02 06:59N 56°13' E 012°18'5 9.5
2018-Jan-02 06:30N 56°11' E 012°25'5 9.9
2018-Jan-02 06:00N 56°08' E 012°32'510.2
2018-Jan-02 05:30N 56°04' E 012°38'1010.2
2018-Jan-02 04:30N 55°54' E 012°45'5 9.9
2018-Jan-02 04:00N 55°49' E 012°43'510.4
2018-Jan-02 03:30N 55°44' E 012°41'5 9.9
2018-Jan-02 03:00N 55°39' E 012°42'5 9.7
2018-Jan-02 02:30N 55°35' E 012°42'510.1
2018-Jan-02 02:00N 55°30' E 012°43'510.5
2018-Jan-02 01:30N 55°24' E 012°42'510.6
2018-Jan-02 01:00N 55°19' E 012°41'5 9.3
2018-Jan-02 00:30N 55°17' E 012°48'5 9.5
2018-Jan-02 00:00N 55°16' E 012°57'5 9.4
2018-Jan-01 23:30N 55°16' E 013°05'5 9.4
2018-Jan-01 23:00N 55°15' E 013°13'5 9.1
2018-Jan-01 22:30N 55°15' E 013°21'4 8.7
2018-Jan-01 22:00N 55°15' E 013°29'10 8.6
2018-Jan-01 20:50N 55°14' E 013°46'14 8.8
2018-Jan-01 19:17N 55°13' E 014°10'2 8.5
2018-Jan-01 19:00N 55°13' E 014°14'4 7.4
2018-Jan-01 18:24N 55°16' E 014°20'3 7.4
2018-Jan-01 18:00N 55°19' E 014°23'4 7.0
2018-Jan-01 17:30N 55°22' E 014°27'  

Dump ship's entire track history